Time;durP1;ratioP1;P1;durP2;ratioP2;P2;SDS_P1;SDS_P2;PMS_P1;PMS_P2;Temp;Humidity;BMP_temperature;BMP_pressure;BME280_temperature;BME280_humidity;BME280_pressure;Samples;Min_cycle;Max_cycle;Signal;HPM_P1;HPM_P2
2024/01/22 00:00:31;;;;;;;6.10;2.60;;;22.20;40.70;;;;;;5053235;28;20188;-55
2024/01/22 00:02:58;;;;;;;8.60;2.25;;;22.20;41.40;;;;;;5053173;28;20307;-52
2024/01/22 00:05:25;;;;;;;7.07;2.45;;;22.20;40.70;;;;;;5053393;28;20225;-54
2024/01/22 00:07:53;;;;;;;8.48;2.53;;;22.20;40.80;;;;;;5053255;28;20302;-53
2024/01/22 00:10:20;;;;;;;8.05;2.35;;;22.10;40.60;;;;;;5053060;28;20564;-52
2024/01/22 00:12:47;;;;;;;7.75;2.15;;;22.20;40.70;;;;;;5052947;28;20666;-53
2024/01/22 00:15:14;;;;;;;6.40;2.00;;;22.20;40.70;;;;;;5052503;28;20274;-55
2024/01/22 00:17:41;;;;;;;7.35;2.30;;;22.20;40.90;;;;;;5052516;28;20215;-53
2024/01/22 00:20:09;;;;;;;7.03;2.28;;;22.20;40.90;;;;;;5053202;28;20274;-55
2024/01/22 00:22:36;;;;;;;6.20;2.40;;;22.20;40.80;;;;;;5052992;28;20223;-55
2024/01/22 00:25:05;;;;;;;8.60;2.53;;;22.20;40.80;;;;;;5052378;28;20697;-53
2024/01/22 00:27:32;;;;;;;10.40;2.80;;;22.20;40.80;;;;;;5052862;28;20701;-53
2024/01/22 00:29:59;;;;;;;7.47;2.60;;;22.20;40.90;;;;;;5053028;28;20211;-56
2024/01/22 00:32:26;;;;;;;8.48;2.45;;;22.20;40.90;;;;;;5052576;28;20306;-53
2024/01/22 00:34:53;;;;;;;6.35;2.45;;;22.20;40.90;;;;;;5052905;28;20188;-51
2024/01/22 00:37:19;;;;;;;7.93;2.35;;;22.10;40.90;;;;;;5052981;28;20219;-51
2024/01/22 00:39:46;;;;;;;7.85;2.47;;;22.20;40.90;;;;;;5052426;28;20188;-53
2024/01/22 00:42:15;;;;;;;6.80;2.42;;;22.20;41.00;;;;;;5052593;28;20250;-52
2024/01/22 00:44:44;;;;;;;9.68;3.03;;;22.20;41.00;;;;;;5052741;28;20195;-52
2024/01/22 00:47:10;;;;;;;7.85;2.47;;;22.20;41.00;;;;;;5052370;28;20658;-53
2024/01/22 00:49:37;;;;;;;6.88;2.85;;;22.20;41.00;;;;;;5052262;28;20744;-50
2024/01/22 00:52:05;;;;;;;6.50;2.30;;;22.20;41.10;;;;;;5052668;28;20670;-53
2024/01/22 00:54:32;;;;;;;8.27;2.53;;;22.20;41.00;;;;;;5052238;28;20183;-48
2024/01/22 00:56:59;;;;;;;9.20;2.55;;;22.20;41.10;;;;;;5052587;28;20215;-50
2024/01/22 00:59:27;;;;;;;6.20;2.40;;;22.20;41.10;;;;;;5052255;28;20191;-51
2024/01/22 01:01:54;;;;;;;8.15;2.40;;;22.20;41.10;;;;;;5051893;28;20223;-53
2024/01/22 01:04:21;;;;;;;8.02;2.85;;;22.20;41.20;;;;;;5052176;28;20671;-51
2024/01/22 01:06:48;;;;;;;8.38;2.67;;;22.20;41.20;;;;;;5052441;28;20231;-50
2024/01/22 01:09:14;;;;;;;7.18;2.50;;;22.20;41.20;;;;;;5051690;28;20254;-53
2024/01/22 01:11:42;;;;;;;6.88;2.58;;;22.20;41.20;;;;;;5052096;28;20219;-49
2024/01/22 01:14:09;;;;;;;10.07;2.60;;;22.20;41.20;;;;;;5052365;28;20278;-53
2024/01/22 01:16:37;;;;;;;6.00;2.38;;;22.20;41.30;;;;;;5052008;28;20215;-53
2024/01/22 01:19:04;;;;;;;5.82;2.10;;;22.20;41.30;;;;;;5052292;28;20194;-51
2024/01/22 01:21:31;;;;;;;5.68;2.40;;;22.30;41.40;;;;;;5052215;28;20327;-50
2024/01/22 01:23:58;;;;;;;8.10;2.60;;;22.20;41.30;;;;;;5051982;28;20197;-53
2024/01/22 01:26:25;;;;;;;6.53;2.65;;;22.20;41.40;;;;;;5052793;28;20311;-49
2024/01/22 01:28:52;;;;;;;8.90;2.67;;;22.20;41.40;;;;;;5058793;28;20209;-54
2024/01/22 01:31:19;;;;;;;7.65;2.50;;;22.20;41.40;;;;;;5056310;28;20191;-54
2024/01/22 01:33:47;;;;;;;6.88;2.13;;;22.20;41.40;;;;;;5058647;28;20219;-53
2024/01/22 01:36:14;;;;;;;6.68;2.25;;;22.30;41.50;;;;;;5058549;28;20219;-54
2024/01/22 01:38:41;;;;;;;6.05;2.22;;;22.20;41.40;;;;;;5058184;28;20191;-52
2024/01/22 01:41:08;;;;;;;8.13;2.20;;;22.20;41.40;;;;;;5058430;28;20193;-54
2024/01/22 01:43:34;;;;;;;6.32;2.20;;;22.30;41.50;;;;;;5058666;28;20226;-52
2024/01/22 01:46:02;;;;;;;3.83;1.58;;;22.20;41.60;;;;;;5058097;28;20301;-51
2024/01/22 01:48:29;;;;;;;5.85;1.75;;;22.30;41.60;;;;;;5058650;28;20219;-55
2024/01/22 01:50:58;;;;;;;4.63;1.80;;;22.30;41.60;;;;;;5058513;28;20282;-54
2024/01/22 01:53:27;;;;;;;4.57;1.88;;;22.30;41.60;;;;;;5058290;28;20302;-52
2024/01/22 01:55:55;;;;;;;6.53;2.08;;;22.20;41.50;;;;;;5058484;28;20191;-52
2024/01/22 01:58:23;;;;;;;7.05;2.00;;;22.30;41.70;;;;;;5058520;28;20219;-53
2024/01/22 02:00:52;;;;;;;3.88;1.58;;;22.30;41.70;;;;;;5057494;28;20745;-51
2024/01/22 02:03:18;;;;;;;5.47;1.88;;;22.30;41.80;;;;;;5058535;28;20217;-51
2024/01/22 02:05:46;;;;;;;3.53;1.77;;;22.30;41.70;;;;;;5058290;28;20215;-50
2024/01/22 02:08:14;;;;;;;6.47;1.88;;;22.30;41.70;;;;;;5057878;28;20241;-51
2024/01/22 02:10:41;;;;;;;5.80;2.00;;;22.30;41.70;;;;;;5058207;28;20191;-50
2024/01/22 02:13:09;;;;;;;4.72;1.77;;;22.30;41.80;;;;;;5058346;28;20319;-54
2024/01/22 02:15:37;;;;;;;4.88;1.77;;;22.30;41.80;;;;;;5057908;28;20191;-52
2024/01/22 02:18:04;;;;;;;6.07;2.00;;;22.30;41.80;;;;;;5058540;28;20306;-51
2024/01/22 02:20:31;;;;;;;6.07;1.63;;;22.30;41.80;;;;;;5057905;28;20603;-51
2024/01/22 02:23:03;;;;;;;4.22;1.52;;;22.30;41.90;;;;;;5057714;28;20226;-53
2024/01/22 02:25:31;;;;;;;7.00;1.90;;;22.30;41.80;;;;;;5057354;28;20190;-52
2024/01/22 02:27:58;;;;;;;3.38;1.45;;;22.30;41.90;;;;;;5058062;28;20685;-55
2024/01/22 02:30:25;;;;;;;5.90;1.73;;;22.30;42.00;;;;;;5057838;28;20191;-56
2024/01/22 02:32:52;;;;;;;6.88;1.95;;;22.30;42.00;;;;;;5058075;28;20270;-50
2024/01/22 02:35:20;;;;;;;5.70;1.70;;;22.30;42.00;;;;;;5057990;28;20191;-55
2024/01/22 02:37:47;;;;;;;3.90;1.40;;;22.30;42.00;;;;;;5057542;28;20219;-55
2024/01/22 02:40:15;;;;;;;4.35;1.90;;;22.30;42.00;;;;;;5054072;28;20271;-52
2024/01/22 02:42:42;;;;;;;5.88;1.80;;;22.30;42.00;;;;;;5054887;28;20219;-53
2024/01/22 02:45:10;;;;;;;4.85;1.42;;;22.30;42.00;;;;;;5054496;28;20202;-53
2024/01/22 02:47:37;;;;;;;5.78;1.63;;;22.30;42.00;;;;;;5054859;28;20277;-53
2024/01/22 02:50:04;;;;;;;5.95;2.10;;;22.30;42.00;;;;;;5054773;28;20184;-55
2024/01/22 02:52:31;;;;;;;6.63;1.70;;;22.30;42.00;;;;;;5034194;28;20255;-53
2024/01/22 02:54:58;;;;;;;5.30;1.80;;;22.30;42.10;;;;;;5034999;28;20275;-54
2024/01/22 02:57:26;;;;;;;4.38;1.50;;;22.30;42.10;;;;;;5053866;28;20223;-53
2024/01/22 02:59:53;;;;;;;5.85;2.08;;;22.30;42.10;;;;;;5054248;28;20199;-52
2024/01/22 03:02:20;;;;;;;8.30;2.20;;;22.30;42.00;;;;;;5054524;28;20310;-55
2024/01/22 03:04:48;;;;;;;7.20;2.47;;;22.30;42.10;;;;;;5054497;28;20271;-55
2024/01/22 03:07:15;;;;;;;7.60;2.10;;;22.30;42.10;;;;;;5053580;28;20603;-54
2024/01/22 03:09:42;;;;;;;6.65;2.17;;;22.30;42.10;;;;;;5054023;28;20237;-52
2024/01/22 03:12:09;;;;;;;8.25;2.20;;;22.30;42.10;;;;;;5053779;28;20740;-52
2024/01/22 03:14:38;;;;;;;8.20;2.60;;;22.30;42.20;;;;;;5054091;28;20202;-53
2024/01/22 03:17:05;;;;;;;9.55;2.67;;;22.30;42.20;;;;;;5053847;28;20298;-53
2024/01/22 03:19:32;;;;;;;12.48;2.88;;;22.30;42.20;;;;;;5054334;28;20210;-55
2024/01/22 03:21:59;;;;;;;6.90;2.58;;;22.30;42.20;;;;;;5053677;28;20215;-54
2024/01/22 03:24:26;;;;;;;10.85;2.90;;;22.30;42.20;;;;;;5054265;28;20188;-55
2024/01/22 03:26:53;;;;;;;9.52;3.08;;;22.30;42.20;;;;;;5053578;28;20677;-56
2024/01/22 03:29:20;;;;;;;9.10;2.70;;;22.30;42.20;;;;;;5053839;28;20183;-55
2024/01/22 03:31:48;;;;;;;9.18;2.40;;;22.30;42.20;;;;;;5053837;28;20223;-51
2024/01/22 03:34:15;;;;;;;9.73;3.20;;;22.30;42.20;;;;;;5054036;28;20202;-53
2024/01/22 03:36:42;;;;;;;14.57;3.80;;;22.30;42.20;;;;;;5053298;28;20294;-52
2024/01/22 03:39:09;;;;;;;9.98;3.40;;;22.30;42.20;;;;;;5053752;28;20282;-52
2024/01/22 03:41:36;;;;;;;12.07;3.33;;;22.30;42.20;;;;;;5053674;28;20271;-54
2024/01/22 03:44:05;;;;;;;10.50;3.22;;;22.30;42.20;;;;;;5053475;28;20203;-53
2024/01/22 03:46:32;;;;;;;11.93;3.80;;;22.30;42.20;;;;;;5053310;28;20828;-54
2024/01/22 03:49:00;;;;;;;11.07;3.67;;;22.30;42.20;;;;;;5053661;28;20621;-54
2024/01/22 03:51:27;;;;;;;13.43;3.45;;;22.30;42.10;;;;;;5052735;28;20184;-52
2024/01/22 03:53:54;;;;;;;10.50;3.40;;;22.30;42.20;;;;;;5053583;28;20206;-53
2024/01/22 03:56:21;;;;;;;16.05;3.85;;;22.30;42.10;;;;;;5053469;28;20264;-54
2024/01/22 03:58:48;;;;;;;15.07;4.22;;;22.30;42.20;;;;;;5053387;28;20215;-54
2024/01/22 04:01:21;;;;;;;13.32;4.20;;;22.30;42.20;;;;;;5053485;28;20184;-54
2024/01/22 04:03:48;;;;;;;10.77;4.00;;;22.30;42.10;;;;;;5053854;28;20219;-55
2024/01/22 04:06:17;;;;;;;14.18;4.25;;;22.30;42.20;;;;;;5052952;28;20554;-51
2024/01/22 04:08:43;;;;;;;16.17;4.45;;;22.30;42.20;;;;;;5053090;28;20245;-54
2024/01/22 04:11:10;;;;;;;14.50;4.28;;;22.30;42.10;;;;;;5053067;28;20199;-55
2024/01/22 04:13:40;;;;;;;17.58;4.15;;;22.30;42.10;;;;;;5053066;28;20220;-55
2024/01/22 04:16:07;;;;;;;16.15;4.50;;;22.30;42.20;;;;;;5052958;28;20199;-50
2024/01/22 04:18:34;;;;;;;14.90;4.82;;;22.30;42.10;;;;;;5053305;28;20306;-53
2024/01/22 04:21:01;;;;;;;16.10;4.78;;;22.30;42.00;;;;;;5052713;28;20195;-53
2024/01/22 04:23:30;;;;;;;19.20;4.80;;;22.30;42.00;;;;;;5053103;28;20302;-53
2024/01/22 04:25:57;;;;;;;23.08;5.10;;;22.30;42.10;;;;;;5052855;28;20276;-52
2024/01/22 04:28:24;;;;;;;18.10;4.43;;;22.30;42.00;;;;;;5051143;28;20237;-55
2024/01/22 04:30:51;;;;;;;15.75;4.70;;;22.30;42.10;;;;;;5052390;28;20206;-53
2024/01/22 04:33:18;;;;;;;17.00;4.78;;;22.30;42.10;;;;;;5052977;28;20307;-55
2024/01/22 04:35:45;;;;;;;14.93;4.97;;;22.30;42.10;;;;;;5052451;28;20227;-51
2024/01/22 04:38:12;;;;;;;18.58;5.22;;;22.30;42.10;;;;;;5052516;28;20801;-52
2024/01/22 04:40:40;;;;;;;18.88;5.22;;;22.30;42.10;;;;;;5052819;28;20183;-51
2024/01/22 04:43:07;;;;;;;21.02;5.53;;;22.30;42.00;;;;;;5052525;28;20220;-53
2024/01/22 04:45:34;;;;;;;19.48;5.30;;;22.30;42.10;;;;;;5052434;28;20271;-53
2024/01/22 04:48:00;;;;;;;19.38;4.68;;;22.30;42.00;;;;;;5052140;28;20604;-53
2024/01/22 04:50:27;;;;;;;17.33;5.20;;;22.30;42.00;;;;;;5052193;28;20653;-51
2024/01/22 04:52:54;;;;;;;22.70;5.47;;;22.30;42.00;;;;;;5052028;28;20254;-50
2024/01/22 04:55:21;;;;;;;20.10;4.78;;;22.30;42.00;;;;;;5052251;28;20194;-53
2024/01/22 04:57:49;;;;;;;18.98;5.22;;;22.30;42.00;;;;;;5052452;28;20222;-56
2024/01/22 05:00:17;;;;;;;20.70;5.07;;;22.30;42.10;;;;;;5052014;28;20273;-50
2024/01/22 05:02:44;;;;;;;17.80;5.22;;;22.30;42.00;;;;;;5051509;28;20239;-53
2024/01/22 05:05:11;;;;;;;20.08;5.35;;;22.30;42.10;;;;;;5052480;28;20560;-55
2024/01/22 05:07:38;;;;;;;22.20;5.65;;;22.30;42.10;;;;;;5051726;28;20231;-53
2024/01/22 05:10:09;;;;;;;24.17;5.85;;;22.30;42.70;;;;;;5051898;28;20198;-53
2024/01/22 05:12:36;;;;;;;22.20;5.13;;;22.30;42.00;;;;;;5051813;28;20266;-54
2024/01/22 05:15:05;;;;;;;18.63;5.15;;;22.30;42.10;;;;;;5051563;28;20198;-51
2024/01/22 05:17:32;;;;;;;24.92;6.00;;;22.30;42.00;;;;;;5052260;28;20272;-55
2024/01/22 05:19:59;;;;;;;19.33;5.60;;;22.30;42.00;;;;;;5052133;28;20198;-53
2024/01/22 05:22:26;;;;;;;28.83;6.82;;;22.30;42.00;;;;;;5051671;28;20764;-51
2024/01/22 05:24:54;;;;;;;20.23;5.78;;;22.30;42.00;;;;;;5052046;28;20192;-56
2024/01/22 05:27:21;;;;;;;19.02;5.28;;;22.30;42.00;;;;;;5031846;28;20733;-54
2024/01/22 05:29:48;;;;;;;22.08;6.57;;;22.30;42.00;;;;;;5031936;28;20267;-50
2024/01/22 05:32:16;;;;;;;24.25;5.65;;;22.30;42.00;;;;;;5050072;28;20262;-55
2024/01/22 05:34:43;;;;;;;21.80;6.03;;;22.30;42.00;;;;;;5050702;28;20191;-54
2024/01/22 05:37:10;;;;;;;24.77;6.22;;;22.30;42.00;;;;;;5051688;28;20221;-51
2024/01/22 05:39:37;;;;;;;26.33;6.78;;;22.30;42.10;;;;;;5051766;28;20191;-53
2024/01/22 05:42:04;;;;;;;22.50;6.35;;;22.30;42.10;;;;;;5051193;28;20219;-54
2024/01/22 05:44:31;;;;;;;18.48;6.15;;;22.30;42.00;;;;;;5051448;28;20216;-53
2024/01/22 05:46:58;;;;;;;20.98;6.20;;;22.30;42.10;;;;;;5051804;28;20218;-54
2024/01/22 05:49:27;;;;;;;22.77;5.78;;;22.30;42.00;;;;;;5052023;28;20270;-51
2024/01/22 05:51:54;;;;;;;19.65;5.82;;;22.30;42.10;;;;;;5051532;28;20192;-53
2024/01/22 05:54:20;;;;;;;22.55;5.82;;;22.30;42.10;;;;;;5051696;28;20192;-53
2024/01/22 05:56:47;;;;;;;19.33;6.15;;;22.30;42.00;;;;;;5051945;28;20564;-54
2024/01/22 05:59:14;;;;;;;24.63;5.93;;;22.30;42.00;;;;;;5051570;28;20192;-54
2024/01/22 06:01:41;;;;;;;20.85;5.97;;;22.30;42.10;;;;;;5051893;28;20202;-55
2024/01/22 06:04:08;;;;;;;25.58;6.70;;;22.30;42.00;;;;;;5051884;28;20280;-55
2024/01/22 06:06:37;;;;;;;23.08;6.63;;;22.30;42.00;;;;;;5051648;28;20184;-53
2024/01/22 06:09:04;;;;;;;25.30;5.70;;;22.30;42.00;;;;;;5051630;28;20318;-49
2024/01/22 06:11:31;;;;;;;22.73;6.18;;;22.30;42.00;;;;;;5051880;28;20287;-50
2024/01/22 06:13:58;;;;;;;24.15;6.28;;;22.30;42.00;;;;;;5052437;28;20251;-51
2024/01/22 06:16:25;;;;;;;24.30;6.13;;;22.30;41.90;;;;;;5055324;28;20279;-53
2024/01/22 06:18:52;;;;;;;20.23;5.47;;;22.30;41.90;;;;;;5055054;28;20606;-53
2024/01/22 06:21:19;;;;;;;26.60;6.13;;;22.30;41.80;;;;;;5052902;28;20570;-53
2024/01/22 06:23:47;;;;;;;20.42;5.88;;;22.30;41.80;;;;;;5054928;28;20216;-52
2024/01/22 06:26:15;;;;;;;22.98;6.47;;;22.30;41.80;;;;;;5055170;28;20279;-54
2024/01/22 06:28:43;;;;;;;19.55;6.28;;;22.30;41.70;;;;;;5054742;28;20454;-50
2024/01/22 06:31:10;;;;;;;23.08;5.70;;;22.30;41.70;;;;;;5055024;28;20199;-53
2024/01/22 06:33:37;;;;;;;21.33;5.88;;;22.30;41.70;;;;;;5055400;28;20218;-53
2024/01/22 06:36:04;;;;;;;21.65;5.95;;;22.30;41.70;;;;;;5054767;28;20274;-55
2024/01/22 06:38:34;;;;;;;20.08;5.18;;;22.30;41.70;;;;;;5055039;28;20277;-52
2024/01/22 06:41:02;;;;;;;23.23;5.95;;;22.30;41.70;;;;;;5054708;28;20650;-52
2024/01/22 06:43:29;;;;;;;18.30;5.60;;;22.30;41.70;;;;;;5054515;28;20226;-55
2024/01/22 06:45:56;;;;;;;26.83;5.93;;;22.30;41.70;;;;;;5054928;28;20191;-56
2024/01/22 06:48:23;;;;;;;19.00;5.68;;;22.20;41.60;;;;;;5054623;28;20235;-52
2024/01/22 06:50:49;;;;;;;17.23;5.60;;;22.30;41.60;;;;;;5054314;28;20280;-52
2024/01/22 06:53:17;;;;;;;21.55;5.60;;;22.30;41.60;;;;;;5054582;28;20219;-52
2024/01/22 06:55:44;;;;;;;18.92;5.50;;;22.30;41.60;;;;;;5054791;28;20275;-54
2024/01/22 06:58:13;;;;;;;22.58;5.55;;;22.30;41.60;;;;;;5054330;28;20306;-54
2024/01/22 07:00:40;;;;;;;20.20;5.88;;;22.20;41.40;;;;;;5054298;28;20577;-53
2024/01/22 07:03:07;;;;;;;20.13;5.53;;;22.30;41.50;;;;;;5054526;28;20311;-54
2024/01/22 07:05:34;;;;;;;21.23;5.70;;;22.30;41.50;;;;;;5054313;28;20223;-49
2024/01/22 07:08:01;;;;;;;17.33;4.57;;;22.30;41.50;;;;;;5054153;28;20265;-51
2024/01/22 07:10:28;;;;;;;19.38;5.30;;;22.30;41.50;;;;;;5054424;28;20213;-55
2024/01/22 07:12:56;;;;;;;16.30;4.78;;;22.30;41.40;;;;;;5054065;28;20212;-53
2024/01/22 07:15:25;;;;;;;15.32;5.40;;;22.30;41.40;;;;;;5054197;28;20199;-55
2024/01/22 07:17:52;;;;;;;18.13;5.15;;;22.30;41.40;;;;;;5054284;28;20225;-53
2024/01/22 07:20:19;;;;;;;17.08;4.97;;;22.30;41.40;;;;;;5053961;28;20214;-55
2024/01/22 07:22:46;;;;;;;18.00;4.50;;;22.30;41.30;;;;;;5053976;28;20222;-52
2024/01/22 07:25:14;;;;;;;16.92;4.15;;;22.30;41.40;;;;;;5053521;28;20290;-51
2024/01/22 07:27:42;;;;;;;20.50;4.65;;;22.30;41.30;;;;;;5053802;28;20238;-51
2024/01/22 07:30:11;;;;;;;14.82;4.50;;;22.30;41.30;;;;;;5054153;28;20196;-50
2024/01/22 07:32:43;;;;;;;14.32;4.57;;;22.30;41.30;;;;;;5053733;28;20212;-55
2024/01/22 07:35:11;;;;;;;17.88;4.95;;;22.30;41.30;;;;;;5053834;28;20279;-51
2024/01/22 07:37:41;;;;;;;16.85;5.05;;;22.30;41.20;;;;;;5053883;28;20212;-53
2024/01/22 07:40:09;;;;;;;17.63;5.43;;;22.30;41.20;;;;;;5053871;28;20188;-54
2024/01/22 07:42:37;;;;;;;17.73;5.15;;;22.30;41.20;;;;;;5053063;28;20600;-55
2024/01/22 07:45:05;;;;;;;16.85;4.38;;;22.30;41.20;;;;;;5053498;28;20282;-51
2024/01/22 07:47:33;;;;;;;14.68;4.50;;;22.30;41.20;;;;;;5053223;28;20223;-54
2024/01/22 07:50:05;;;;;;;17.50;4.97;;;22.30;41.20;;;;;;5053450;28;20282;-51
2024/01/22 07:52:33;;;;;;;15.48;4.78;;;22.30;41.10;;;;;;5053430;28;20241;-55
2024/01/22 07:55:00;;;;;;;16.10;4.65;;;22.30;41.10;;;;;;5053644;28;20198;-51
2024/01/22 07:57:27;;;;;;;17.35;5.60;;;22.30;41.00;;;;;;5053237;28;20215;-53
2024/01/22 07:59:54;;;;;;;14.07;4.43;;;22.30;41.00;;;;;;5053302;28;20280;-56
2024/01/22 08:02:21;;;;;;;16.00;4.47;;;22.30;41.00;;;;;;5053115;28;20211;-54
2024/01/22 08:04:50;;;;;;;15.48;4.55;;;22.30;41.00;;;;;;5053195;28;20184;-52
2024/01/22 08:07:19;;;;;;;12.70;4.28;;;22.30;41.00;;;;;;5052728;28;20241;-51
2024/01/22 08:09:46;;;;;;;14.93;4.10;;;22.30;40.90;;;;;;5053079;28;20235;-53
2024/01/22 08:12:13;;;;;;;14.70;4.28;;;22.30;40.80;;;;;;5052963;28;20202;-52
2024/01/22 08:14:40;;;;;;;16.23;4.15;;;22.30;40.80;;;;;;5053111;28;20290;-55
2024/01/22 08:17:07;;;;;;;18.30;4.55;;;22.30;40.80;;;;;;5052959;28;20661;-52
2024/01/22 08:19:34;;;;;;;15.98;4.35;;;22.30;40.80;;;;;;5052887;28;20286;-54
2024/01/22 08:22:02;;;;;;;14.13;4.00;;;22.30;40.80;;;;;;5052946;28;20194;-53
2024/01/22 08:24:30;;;;;;;14.00;4.75;;;22.30;40.80;;;;;;5052786;28;20563;-55
2024/01/22 08:26:57;;;;;;;18.65;4.75;;;22.30;40.80;;;;;;5051982;28;20701;-52
2024/01/22 08:29:24;;;;;;;15.60;4.22;;;22.30;40.80;;;;;;5052814;28;20659;-51
2024/01/22 08:31:52;;;;;;;14.75;4.40;;;22.30;40.70;;;;;;5052855;28;20275;-55
2024/01/22 08:34:19;;;;;;;17.40;4.57;;;22.30;40.70;;;;;;5052749;28;20219;-55
2024/01/22 08:36:46;;;;;;;18.20;4.85;;;22.30;40.60;;;;;;5051733;28;20661;-54
2024/01/22 08:39:14;;;;;;;17.55;3.97;;;22.30;40.60;;;;;;5052625;28;20219;-55
2024/01/22 08:41:42;;;;;;;19.60;4.32;;;22.20;40.60;;;;;;5052465;28;20192;-53
2024/01/22 08:44:09;;;;;;;18.08;4.90;;;22.30;40.60;;;;;;5052449;28;20717;-53
2024/01/22 08:46:36;;;;;;;12.05;3.70;;;22.30;40.60;;;;;;5052489;28;20290;-52
2024/01/22 08:49:04;;;;;;;12.75;3.50;;;22.30;40.60;;;;;;5051606;28;20765;-55
2024/01/22 08:51:31;;;;;;;14.95;3.72;;;22.30;40.50;;;;;;5052526;28;20226;-56
2024/01/22 08:53:57;;;;;;;14.02;4.20;;;22.30;40.50;;;;;;5052364;28;20217;-52
2024/01/22 08:56:24;;;;;;;13.18;3.85;;;22.30;40.60;;;;;;5052176;28;20200;-53
2024/01/22 08:58:53;;;;;;;13.07;3.88;;;22.20;40.40;;;;;;5052082;28;20247;-53
2024/01/22 09:01:20;;;;;;;13.75;3.92;;;22.20;40.40;;;;;;5052026;28;20642;-50
2024/01/22 09:03:47;;;;;;;11.88;3.67;;;22.20;40.40;;;;;;5051932;28;20240;-53
2024/01/22 09:06:14;;;;;;;13.05;3.60;;;22.20;40.30;;;;;;5052154;28;20195;-53
2024/01/22 09:08:42;;;;;;;13.40;3.70;;;22.30;40.40;;;;;;5051815;28;20241;-56
2024/01/22 09:11:09;;;;;;;16.20;4.32;;;22.30;40.30;;;;;;5051973;28;20235;-55
2024/01/22 09:13:38;;;;;;;20.13;4.05;;;22.30;40.30;;;;;;5052087;28;20219;-53
2024/01/22 09:16:08;;;;;;;12.88;3.95;;;22.30;41.00;;;;;;5052341;28;20200;-53
2024/01/22 09:18:35;;;;;;;13.27;4.00;;;22.20;40.20;;;;;;5051697;28;20218;-52
2024/01/22 09:21:03;;;;;;;11.75;3.97;;;22.20;40.30;;;;;;5052005;28;20195;-56
2024/01/22 09:23:30;;;;;;;16.83;4.10;;;22.20;40.20;;;;;;5052027;28;20219;-55
2024/01/22 09:25:57;;;;;;;17.65;4.40;;;22.20;40.30;;;;;;5051723;28;20278;-52
2024/01/22 09:28:30;;;;;;;10.48;3.60;;;22.20;40.20;;;;;;5051895;28;20231;-54
2024/01/22 09:30:59;;;;;;;11.98;3.90;;;22.20;40.20;;;;;;5051880;28;20270;-52
2024/01/22 09:33:28;;;;;;;13.90;3.65;;;22.20;40.20;;;;;;5051517;28;20397;-51
2024/01/22 09:35:55;;;;;;;12.95;3.72;;;22.20;40.20;;;;;;5052004;28;20195;-55
2024/01/22 09:38:23;;;;;;;16.15;4.03;;;22.30;40.30;;;;;;5051867;28;20215;-54
2024/01/22 09:40:51;;;;;;;14.32;4.30;;;22.20;40.10;;;;;;5051229;28;20187;-54
2024/01/22 09:43:18;;;;;;;14.55;3.90;;;22.20;40.10;;;;;;5051531;28;20765;-54
2024/01/22 09:45:48;;;;;;;13.68;3.85;;;22.20;40.70;;;;;;5051679;28;20184;-55
2024/01/22 09:48:15;;;;;;;12.55;3.67;;;22.20;40.10;;;;;;5052506;28;20681;-55
2024/01/22 09:50:43;;;;;;;14.63;3.72;;;22.20;40.10;;;;;;5055850;28;20235;-51
2024/01/22 09:53:11;;;;;;;16.75;3.72;;;22.30;40.10;;;;;;5055477;28;20658;-54
2024/01/22 09:55:40;;;;;;;18.33;3.90;;;22.20;40.00;;;;;;5055285;28;20608;-52
2024/01/22 09:58:09;;;;;;;12.70;3.95;;;22.30;40.10;;;;;;5055242;28;20219;-52
2024/01/22 10:00:36;;;;;;;13.20;3.70;;;22.30;40.10;;;;;;5055665;28;20559;-51
2024/01/22 10:03:04;;;;;;;12.68;3.55;;;22.30;40.10;;;;;;5055214;28;20297;-53
2024/01/22 10:05:31;;;;;;;12.40;3.72;;;22.30;40.10;;;;;;5055680;28;20267;-48
2024/01/22 10:07:59;;;;;;;12.13;3.78;;;22.30;40.00;;;;;;5055249;28;20302;-51
2024/01/22 10:10:26;;;;;;;14.02;3.83;;;22.30;40.00;;;;;;5055364;28;20294;-54
2024/01/22 10:13:02;;;;;;;13.48;3.60;;;22.30;40.10;;;;;;5055340;28;20221;-52
2024/01/22 10:15:30;;;;;;;12.82;3.35;;;22.30;40.10;;;;;;5055776;28;20266;-53
2024/01/22 10:18:08;;;;;;;11.57;3.55;;;22.40;40.00;;;;;;5054781;28;20223;-54
2024/01/22 10:20:35;;;;;;;16.05;3.90;;;22.40;40.00;;;;;;5055527;28;20191;-51
2024/01/22 10:23:03;;;;;;;13.73;3.58;;;22.50;40.80;;;;;;5054826;28;20215;-52
2024/01/22 10:25:31;;;;;;;12.82;4.30;;;22.50;40.10;;;;;;5053934;28;20199;-52
2024/01/22 10:28:11;;;;;;;10.90;3.33;;;22.60;40.10;;;;;;5055349;28;20302;-46
2024/01/22 10:30:40;;;;;;;13.27;4.00;;;22.70;40.00;;;;;;5054937;28;20188;-53
2024/01/22 10:33:13;;;;;;;17.20;3.80;;;22.70;39.80;;;;;;5053920;28;20215;-52
2024/01/22 10:35:41;;;;;;;13.88;4.13;;;22.80;39.50;;;;;;5054709;28;20573;-47
2024/01/22 10:38:13;;;;;;;15.48;4.30;;;22.90;39.30;;;;;;5055350;28;20215;-47
2024/01/22 10:40:41;;;;;;;24.52;3.97;;;23.00;39.10;;;;;;5054636;28;20283;-48
2024/01/22 10:43:24;;;;;;;13.25;4.20;;;22.90;38.90;;;;;;5055080;28;20298;-51
2024/01/22 10:45:51;;;;;;;13.07;3.55;;;22.90;38.90;;;;;;5054830;28;20198;-51
2024/01/22 10:48:19;;;;;;;16.38;4.35;;;22.90;38.90;;;;;;5054553;28;20226;-49
2024/01/22 10:50:46;;;;;;;17.40;4.07;;;22.80;39.10;;;;;;5054935;28;20215;-48
2024/01/22 10:53:16;;;;;;;18.55;4.28;;;22.70;40.20;;;;;;5054604;28;20219;-52
2024/01/22 10:55:53;;;;;;;16.20;4.13;;;22.60;40.90;;;;;;5054510;28;20198;-52
2024/01/22 10:58:25;;;;;;;17.08;4.13;;;22.60;41.50;;;;;;5054833;28;20219;-50
2024/01/22 11:00:55;;;;;;;12.35;3.72;;;22.50;41.90;;;;;;5053441;28;20196;-47
2024/01/22 11:03:27;;;;;;;16.85;3.95;;;22.50;41.70;;;;;;5054880;28;20306;-49
2024/01/22 11:05:57;;;;;;;11.95;3.70;;;22.50;41.80;;;;;;5054713;28;20188;-52
2024/01/22 11:08:29;;;;;;;14.30;3.67;;;22.50;41.80;;;;;;5053750;28;20235;-50
2024/01/22 11:10:57;;;;;;;14.02;3.65;;;22.50;41.80;;;;;;5054539;28;20191;-51
2024/01/22 11:13:24;;;;;;;12.50;2.97;;;22.50;41.60;;;;;;5054641;28;20215;-48
2024/01/22 11:15:51;;;;;;;16.80;4.05;;;22.50;41.40;;;;;;5054263;28;20267;-49
2024/01/22 11:18:18;;;;;;;11.25;3.58;;;22.50;41.30;;;;;;5054541;28;20219;-51
2024/01/22 11:20:45;;;;;;;13.43;3.42;;;22.60;41.30;;;;;;5054361;28;20276;-47
2024/01/22 11:23:16;;;;;;;12.43;3.67;;;22.60;41.80;;;;;;5053832;28;20574;-52
2024/01/22 11:25:44;;;;;;;11.32;3.38;;;22.50;41.00;;;;;;5054097;28;20196;-50
2024/01/22 11:28:15;;;;;;;10.98;3.63;;;22.50;41.00;;;;;;5054326;28;20219;-47
2024/01/22 11:30:44;;;;;;;13.38;3.63;;;22.50;41.00;;;;;;5053622;28;20700;-46
2024/01/22 11:33:31;;;;;;;13.95;2.92;;;22.50;40.90;;;;;;5054303;28;20223;-48
2024/01/22 11:35:58;;;;;;;13.82;3.67;;;22.50;40.90;;;;;;5054167;28;20187;-51
2024/01/22 11:38:51;;;;;;;14.27;3.40;;;22.50;40.80;;;;;;5053768;28;20280;-52
2024/01/22 11:41:34;;;;;;;11.68;2.92;;;22.50;40.70;;;;;;5053757;28;20199;-46
2024/01/22 11:44:01;;;;;;;10.10;2.67;;;22.40;40.60;;;;;;5054187;28;20215;-48
2024/01/22 11:46:28;;;;;;;12.70;2.90;;;22.40;40.50;;;;;;5053805;28;20270;-51
2024/01/22 11:48:55;;;;;;;9.98;3.38;;;22.50;40.50;;;;;;5053503;28;20234;-49
2024/01/22 11:51:27;;;;;;;10.18;2.70;;;22.50;40.50;;;;;;5053877;28;20187;-48
2024/01/22 11:53:56;;;;;;;10.13;2.90;;;22.50;40.50;;;;;;5053604;28;20223;-51
2024/01/22 11:56:23;;;;;;;10.93;2.72;;;22.50;40.50;;;;;;5053853;28;20275;-48
2024/01/22 11:59:01;;;;;;;12.63;3.38;;;22.40;40.30;;;;;;5053817;28;20302;-51
2024/01/22 12:01:28;;;;;;;11.68;3.08;;;22.40;40.30;;;;;;5052949;28;20684;-50
2024/01/22 12:03:55;;;;;;;10.25;3.00;;;22.40;40.90;;;;;;5053383;28;20215;-49
2024/01/22 12:06:22;;;;;;;9.25;2.92;;;22.40;40.20;;;;;;5053541;28;20275;-49
2024/01/22 12:08:57;;;;;;;11.15;3.00;;;22.40;40.20;;;;;;5052809;28;20678;-51
2024/01/22 12:11:24;;;;;;;10.10;2.78;;;22.40;40.10;;;;;;5053130;28;20187;-48
2024/01/22 12:13:52;;;;;;;8.45;3.15;;;22.40;40.80;;;;;;5053190;28;20247;-51
2024/01/22 12:16:20;;;;;;;12.57;3.50;;;22.40;40.00;;;;;;5053022;28;20275;-50
2024/01/22 12:18:47;;;;;;;11.48;2.85;;;22.40;40.00;;;;;;5053384;28;20219;-51
2024/01/22 12:21:16;;;;;;;11.15;3.13;;;22.40;40.00;;;;;;5053302;28;20190;-49
2024/01/22 12:23:43;;;;;;;9.23;2.85;;;22.40;39.90;;;;;;5052844;28;20302;-51
2024/01/22 12:26:14;;;;;;;9.27;2.85;;;22.40;39.90;;;;;;5053195;28;20275;-50
2024/01/22 12:28:41;;;;;;;11.35;2.75;;;22.40;39.90;;;;;;5053141;28;20226;-51
2024/01/22 12:31:09;;;;;;;7.32;2.38;;;22.40;39.90;;;;;;5052694;28;20274;-49
2024/01/22 12:33:36;;;;;;;8.82;2.65;;;22.40;39.80;;;;;;5053122;28;20227;-50
2024/01/22 12:36:11;;;;;;;11.77;3.15;;;22.40;39.80;;;;;;5052642;28;20277;-49
2024/01/22 12:38:49;;;;;;;9.88;2.90;;;22.40;39.80;;;;;;5052418;28;20594;-50
2024/01/22 12:41:16;;;;;;;9.45;2.63;;;22.40;39.70;;;;;;5052873;28;20191;-48
2024/01/22 12:43:43;;;;;;;10.32;3.10;;;22.40;39.60;;;;;;5052971;28;20310;-48